Time;durP1;ratioP1;P1;durP2;ratioP2;P2;SDS_P1;SDS_P2;PMS_P1;PMS_P2;Temp;Humidity;BMP_temperature;BMP_pressure;BME280_temperature;BME280_humidity;BME280_pressure;Samples;Min_cycle;Max_cycle;Signal;HPM_P1;HPM_P2
2023/08/02 00:01:05;;;;;;;1.40;0.90;;;;;;;;;;5111121;28;20043;-70
2023/08/02 00:03:32;;;;;;;1.05;0.70;;;;;;;;;;5111258;28;20051;-72
2023/08/02 00:06:00;;;;;;;1.20;0.88;;;;;;;;;;5111205;28;20097;-74
2023/08/02 00:08:29;;;;;;;2.85;1.00;;;;;;;;;;5111395;28;20312;-70
2023/08/02 00:10:56;;;;;;;3.67;0.98;;;;;;;;;;5111213;28;20124;-71
2023/08/02 00:13:22;;;;;;;1.60;0.68;;;;;;;;;;5111060;28;20139;-69
2023/08/02 00:15:52;;;;;;;2.40;0.80;;;;;;;;;;5110629;28;20048;-72
2023/08/02 00:18:18;;;;;;;2.08;0.80;;;;;;;;;;5111040;28;20066;-71
2023/08/02 00:20:45;;;;;;;1.60;0.82;;;;;;;;;;5110512;28;20050;-70
2023/08/02 00:23:12;;;;;;;1.52;0.75;;;;;;;;;;5111043;28;20104;-70
2023/08/02 00:25:39;;;;;;;1.65;0.90;;;;;;;;;;5111162;28;20044;-69
2023/08/02 00:28:06;;;;;;;2.03;0.98;;;;;;;;;;5110467;28;20051;-69
2023/08/02 00:30:43;;;;;;;1.33;0.80;;;;;;;;;;5110695;28;20052;-69
2023/08/02 00:33:10;;;;;;;1.40;0.90;;;;;;;;;;5110753;28;20043;-71
2023/08/02 00:35:42;;;;;;;3.95;0.90;;;;;;;;;;5110553;28;20060;-70
2023/08/02 00:38:09;;;;;;;1.25;0.80;;;;;;;;;;5110246;28;20438;-71
2023/08/02 00:40:36;;;;;;;1.48;0.80;;;;;;;;;;5110607;28;20043;-69
2023/08/02 00:43:03;;;;;;;2.08;0.82;;;;;;;;;;5110344;28;20514;-69
2023/08/02 00:45:29;;;;;;;1.80;0.90;;;;;;;;;;5110630;28;20051;-69
2023/08/02 00:47:59;;;;;;;2.33;0.95;;;;;;;;;;5110594;28;20051;-69
2023/08/02 00:50:29;;;;;;;1.88;0.90;;;;;;;;;;5110656;28;20039;-73
2023/08/02 00:52:56;;;;;;;1.25;0.88;;;;;;;;;;5110030;28;20044;-73
2023/08/02 00:55:22;;;;;;;1.73;0.70;;;;;;;;;;5110147;28;20039;-69
2023/08/02 00:57:49;;;;;;;1.70;0.80;;;;;;;;;;5110586;28;20051;-69
2023/08/02 01:00:16;;;;;;;1.63;0.90;;;;;;;;;;5110136;28;20048;-73
2023/08/02 01:02:43;;;;;;;1.67;0.80;;;;;;;;;;5110241;28;20047;-71
2023/08/02 01:05:09;;;;;;;1.55;0.88;;;;;;;;;;5110394;28;20093;-69
2023/08/02 01:08:00;;;;;;;1.45;1.02;;;;;;;;;;5110000;28;20055;-70
2023/08/02 01:10:33;;;;;;;1.77;0.90;;;;;;;;;;5110128;28;20081;-69
2023/08/02 01:13:04;;;;;;;1.10;0.82;;;;;;;;;;5109961;28;20388;-71
2023/08/02 01:15:33;;;;;;;2.47;1.00;;;;;;;;;;5110055;28;20047;-69
2023/08/02 01:18:01;;;;;;;1.47;0.80;;;;;;;;;;5109973;28;20538;-68
2023/08/02 01:20:28;;;;;;;1.70;0.88;;;;;;;;;;5110085;28;20039;-68
2023/08/02 01:22:55;;;;;;;1.50;0.90;;;;;;;;;;5109629;28;20073;-69
2023/08/02 01:25:25;;;;;;;1.52;0.95;;;;;;;;;;5110378;28;20050;-70
2023/08/02 01:27:56;;;;;;;1.17;0.70;;;;;;;;;;5110184;28;20105;-73
2023/08/02 01:30:25;;;;;;;1.63;1.00;;;;;;;;;;5109921;28;20055;-72
2023/08/02 01:32:53;;;;;;;1.73;0.88;;;;;;;;;;5111904;28;20065;-76
2023/08/02 01:35:20;;;;;;;3.22;1.00;;;;;;;;;;5114046;28;20506;-70
2023/08/02 01:37:48;;;;;;;2.53;0.90;;;;;;;;;;5114021;28;20048;-71
2023/08/02 01:40:15;;;;;;;3.17;0.90;;;;;;;;;;5114224;28;20051;-72
2023/08/02 01:42:42;;;;;;;1.52;0.90;;;;;;;;;;5113970;28;20122;-69
2023/08/02 01:45:10;;;;;;;1.85;0.95;;;;;;;;;;5113976;28;20415;-72
2023/08/02 01:47:36;;;;;;;1.63;1.00;;;;;;;;;;5113696;28;20491;-73
2023/08/02 01:50:03;;;;;;;2.22;1.00;;;;;;;;;;5113739;28;20519;-69
2023/08/02 01:52:30;;;;;;;1.48;0.98;;;;;;;;;;5113740;28;20446;-74
2023/08/02 01:54:56;;;;;;;1.73;0.90;;;;;;;;;;5113659;28;20634;-70
2023/08/02 01:57:23;;;;;;;1.02;0.82;;;;;;;;;;5113328;28;20188;-69
2023/08/02 01:59:50;;;;;;;2.00;1.05;;;;;;;;;;5113464;28;20138;-69
2023/08/02 02:02:16;;;;;;;1.90;1.02;;;;;;;;;;5113453;28;20047;-71
2023/08/02 02:04:44;;;;;;;3.38;1.05;;;;;;;;;;5113754;28;20069;-71
2023/08/02 02:07:10;;;;;;;1.45;0.80;;;;;;;;;;5113496;28;20051;-70
2023/08/02 02:09:37;;;;;;;1.35;1.00;;;;;;;;;;5113612;28;20198;-71
2023/08/02 02:12:04;;;;;;;1.90;1.00;;;;;;;;;;5113393;28;20384;-69
2023/08/02 02:14:31;;;;;;;1.10;0.73;;;;;;;;;;5113469;28;20046;-70
2023/08/02 02:16:57;;;;;;;1.50;0.88;;;;;;;;;;5113462;28;20047;-71
2023/08/02 02:19:24;;;;;;;1.88;1.05;;;;;;;;;;5113177;28;20051;-71
2023/08/02 02:21:51;;;;;;;2.20;0.90;;;;;;;;;;5113368;28;20067;-69
2023/08/02 02:24:17;;;;;;;1.00;0.63;;;;;;;;;;5112895;28;20049;-69
2023/08/02 02:26:44;;;;;;;2.60;1.00;;;;;;;;;;5113403;28;20134;-72
2023/08/02 02:29:11;;;;;;;1.90;0.90;;;;;;;;;;5112969;28;20139;-75
2023/08/02 02:31:37;;;;;;;1.25;0.80;;;;;;;;;;5112832;28;20400;-78
2023/08/02 02:34:04;;;;;;;2.22;1.10;;;;;;;;;;5113262;28;20043;-77
2023/08/02 02:36:31;;;;;;;1.05;0.70;;;;;;;;;;5113096;28;20043;-70
2023/08/02 02:38:57;;;;;;;1.23;0.90;;;;;;;;;;5112721;28;20051;-70
2023/08/02 02:41:24;;;;;;;2.08;1.00;;;;;;;;;;5112800;28;20661;-71
2023/08/02 02:43:51;;;;;;;1.98;0.90;;;;;;;;;;5112217;28;20048;-70
2023/08/02 02:46:17;;;;;;;2.28;1.00;;;;;;;;;;5113207;28;20059;-71
2023/08/02 02:48:44;;;;;;;1.10;0.80;;;;;;;;;;5112559;28;20057;-72
2023/08/02 02:51:11;;;;;;;1.10;0.75;;;;;;;;;;5112892;28;20047;-69
2023/08/02 02:53:37;;;;;;;2.25;0.82;;;;;;;;;;5112451;28;20081;-70
2023/08/02 02:56:04;;;;;;;2.53;1.10;;;;;;;;;;5112741;28;20043;-69
2023/08/02 02:58:31;;;;;;;1.77;0.85;;;;;;;;;;5112297;28;20100;-70
2023/08/02 03:00:57;;;;;;;1.20;0.80;;;;;;;;;;5112319;28;20536;-71
2023/08/02 03:03:24;;;;;;;1.60;0.98;;;;;;;;;;5112641;28;20048;-70
2023/08/02 03:05:54;;;;;;;2.90;0.93;;;;;;;;;;5112599;28;20047;-72
2023/08/02 03:08:20;;;;;;;2.10;1.05;;;;;;;;;;5112173;28;20096;-69
2023/08/02 03:10:47;;;;;;;1.27;0.80;;;;;;;;;;5112296;28;20048;-73
2023/08/02 03:13:14;;;;;;;2.40;1.10;;;;;;;;;;5112130;28;20051;-70
2023/08/02 03:15:40;;;;;;;1.23;0.73;;;;;;;;;;5112392;28;20047;-70
2023/08/02 03:18:07;;;;;;;1.52;0.93;;;;;;;;;;5111904;28;20403;-70
2023/08/02 03:20:38;;;;;;;1.23;0.82;;;;;;;;;;5111806;28;20090;-69
2023/08/02 03:23:07;;;;;;;1.10;0.80;;;;;;;;;;5110702;28;20051;-69
2023/08/02 03:25:34;;;;;;;1.70;1.00;;;;;;;;;;5112229;28;20043;-73
2023/08/02 03:28:00;;;;;;;0.80;0.77;;;;;;;;;;5112184;28;20102;-70
2023/08/02 03:30:27;;;;;;;2.20;0.80;;;;;;;;;;5111985;28;20054;-69
2023/08/02 03:32:54;;;;;;;1.35;0.80;;;;;;;;;;5111859;28;20411;-70
2023/08/02 03:35:20;;;;;;;1.67;1.00;;;;;;;;;;5111591;28;20043;-69
2023/08/02 03:37:47;;;;;;;3.08;1.08;;;;;;;;;;5111578;28;20732;-70
2023/08/02 03:40:14;;;;;;;1.67;0.80;;;;;;;;;;5111479;28;20044;-69
2023/08/02 03:42:40;;;;;;;2.15;1.02;;;;;;;;;;5111747;28;20100;-72
2023/08/02 03:45:07;;;;;;;1.48;0.90;;;;;;;;;;5111275;28;20560;-71
2023/08/02 03:47:34;;;;;;;1.35;0.90;;;;;;;;;;5111563;28;20538;-70
2023/08/02 03:50:01;;;;;;;2.20;1.00;;;;;;;;;;5111141;28;20130;-70
2023/08/02 03:52:27;;;;;;;2.10;0.90;;;;;;;;;;5111135;28;20114;-70
2023/08/02 03:54:54;;;;;;;1.55;0.95;;;;;;;;;;5110588;28;20092;-70
2023/08/02 03:57:21;;;;;;;2.55;1.10;;;;;;;;;;5111366;28;20071;-69
2023/08/02 03:59:47;;;;;;;1.35;0.80;;;;;;;;;;5111125;28;20051;-69
2023/08/02 04:02:14;;;;;;;0.88;0.70;;;;;;;;;;5111054;28;20059;-70
2023/08/02 04:04:40;;;;;;;1.75;0.98;;;;;;;;;;5111374;28;20054;-71
2023/08/02 04:07:10;;;;;;;4.38;1.10;;;;;;;;;;5111280;28;20130;-72
2023/08/02 04:09:36;;;;;;;1.67;1.00;;;;;;;;;;5110858;28;20062;-69
2023/08/02 04:12:03;;;;;;;2.85;1.00;;;;;;;;;;5110863;28;20756;-70
2023/08/02 04:14:30;;;;;;;1.58;1.00;;;;;;;;;;5110713;28;20444;-73
2023/08/02 04:16:57;;;;;;;1.60;1.00;;;;;;;;;;5111070;28;20047;-73
2023/08/02 04:19:25;;;;;;;1.58;0.75;;;;;;;;;;5110466;28;20048;-68
2023/08/02 04:21:52;;;;;;;1.58;1.02;;;;;;;;;;5110730;28;20052;-73
2023/08/02 04:24:18;;;;;;;1.65;0.90;;;;;;;;;;5110483;28;20051;-71
2023/08/02 04:26:45;;;;;;;1.60;0.93;;;;;;;;;;5111126;28;20043;-69
2023/08/02 04:29:12;;;;;;;1.58;1.00;;;;;;;;;;5110590;28;20108;-69
2023/08/02 04:31:38;;;;;;;2.03;1.20;;;;;;;;;;5110282;28;20052;-69
2023/08/02 04:34:05;;;;;;;2.63;1.25;;;;;;;;;;5110570;28;20065;-69
2023/08/02 04:36:32;;;;;;;1.20;0.82;;;;;;;;;;5110582;28;20279;-72
2023/08/02 04:39:02;;;;;;;3.40;1.08;;;;;;;;;;5110316;28;20051;-70
2023/08/02 04:41:28;;;;;;;2.10;1.10;;;;;;;;;;5110264;28;20423;-68
2023/08/02 04:43:55;;;;;;;1.75;1.13;;;;;;;;;;5110293;28;20282;-68
2023/08/02 04:46:25;;;;;;;1.75;1.30;;;;;;;;;;5110516;28;20054;-68
2023/08/02 04:48:52;;;;;;;3.63;1.20;;;;;;;;;;5110283;28;20047;-68
2023/08/02 04:51:19;;;;;;;1.60;0.98;;;;;;;;;;5110025;28;20053;-68
2023/08/02 04:53:49;;;;;;;4.28;1.30;;;;;;;;;;5110396;28;20055;-69
2023/08/02 04:56:16;;;;;;;1.83;1.15;;;;;;;;;;5110305;28;20043;-68
2023/08/02 04:58:43;;;;;;;1.70;1.20;;;;;;;;;;5110344;28;20044;-74
2023/08/02 05:01:10;;;;;;;3.03;1.13;;;;;;;;;;5109875;28;20047;-70
2023/08/02 05:03:36;;;;;;;2.70;1.35;;;;;;;;;;5110232;28;20043;-76
2023/08/02 05:06:05;;;;;;;3.83;1.35;;;;;;;;;;5109966;28;20652;-70
2023/08/02 05:08:34;;;;;;;1.52;1.00;;;;;;;;;;5109920;28;20505;-71
2023/08/02 05:11:05;;;;;;;1.90;1.10;;;;;;;;;;5110164;28;20055;-71
2023/08/02 05:13:33;;;;;;;3.03;1.20;;;;;;;;;;5092216;28;20051;-78
2023/08/02 05:16:00;;;;;;;2.25;1.10;;;;;;;;;;5109663;28;20040;-72
2023/08/02 05:18:27;;;;;;;3.00;1.27;;;;;;;;;;5109986;28;20122;-72
2023/08/02 05:20:53;;;;;;;2.08;1.20;;;;;;;;;;5109997;28;20048;-73
2023/08/02 05:23:20;;;;;;;3.85;1.30;;;;;;;;;;5110014;28;20044;-69
2023/08/02 05:25:47;;;;;;;1.67;1.15;;;;;;;;;;5109978;28;20047;-70
2023/08/02 05:28:13;;;;;;;1.85;1.00;;;;;;;;;;5109920;28;20050;-70
2023/08/02 05:30:40;;;;;;;3.60;1.40;;;;;;;;;;5109692;28;20051;-72
2023/08/02 05:33:07;;;;;;;2.08;1.15;;;;;;;;;;5109856;28;20050;-74
2023/08/02 05:35:33;;;;;;;2.20;1.30;;;;;;;;;;5109441;28;20130;-69
2023/08/02 05:38:00;;;;;;;1.52;1.05;;;;;;;;;;5110005;28;20044;-70
2023/08/02 05:40:27;;;;;;;3.33;1.17;;;;;;;;;;5109932;28;20139;-70
2023/08/02 05:42:54;;;;;;;1.55;1.00;;;;;;;;;;5109801;28;20050;-69
2023/08/02 05:45:20;;;;;;;1.70;1.25;;;;;;;;;;5109573;28;20051;-70
2023/08/02 05:47:49;;;;;;;3.38;1.30;;;;;;;;;;5110029;28;20040;-72
2023/08/02 05:50:16;;;;;;;2.38;1.20;;;;;;;;;;5109768;28;20051;-69
2023/08/02 05:52:43;;;;;;;1.75;1.00;;;;;;;;;;5109212;28;20418;-69
2023/08/02 05:55:09;;;;;;;2.30;1.30;;;;;;;;;;5109400;28;20136;-70
2023/08/02 05:57:39;;;;;;;3.00;1.20;;;;;;;;;;5109500;28;20072;-70
2023/08/02 06:00:07;;;;;;;2.97;1.40;;;;;;;;;;5109936;28;20075;-68
2023/08/02 06:02:34;;;;;;;3.22;1.20;;;;;;;;;;5109909;28;20128;-68
2023/08/02 06:05:02;;;;;;;2.58;1.13;;;;;;;;;;5109296;28;20044;-68
2023/08/02 06:07:29;;;;;;;3.85;1.40;;;;;;;;;;5109662;28;20082;-69
2023/08/02 06:09:55;;;;;;;2.42;1.02;;;;;;;;;;5109377;28;20058;-69
2023/08/02 06:12:22;;;;;;;1.45;0.80;;;;;;;;;;5109204;28;20050;-68
2023/08/02 06:14:49;;;;;;;2.47;1.17;;;;;;;;;;5109678;28;20047;-69
2023/08/02 06:17:15;;;;;;;1.38;1.00;;;;;;;;;;5109684;28;20048;-69
2023/08/02 06:19:42;;;;;;;4.10;1.10;;;;;;;;;;5112803;28;20071;-68
2023/08/02 06:22:09;;;;;;;3.15;1.30;;;;;;;;;;5112841;28;20513;-68
2023/08/02 06:24:36;;;;;;;2.55;1.08;;;;;;;;;;5113222;28;20427;-68
2023/08/02 06:27:03;;;;;;;2.33;1.00;;;;;;;;;;5112904;28;20052;-69
2023/08/02 06:29:29;;;;;;;2.50;1.10;;;;;;;;;;5113323;28;20134;-68
2023/08/02 06:31:56;;;;;;;1.90;1.02;;;;;;;;;;5112567;28;20051;-69
2023/08/02 06:34:23;;;;;;;2.08;1.00;;;;;;;;;;5113110;28;20043;-68
2023/08/02 06:36:49;;;;;;;2.10;0.82;;;;;;;;;;5094706;28;20043;-68
2023/08/02 06:39:16;;;;;;;1.98;1.10;;;;;;;;;;5112840;28;20525;-69
2023/08/02 06:41:43;;;;;;;5.25;0.90;;;;;;;;;;5112440;28;20043;-70
2023/08/02 06:44:10;;;;;;;2.60;1.00;;;;;;;;;;5112598;28;20052;-68
2023/08/02 06:46:36;;;;;;;1.73;1.10;;;;;;;;;;5112819;28;20043;-69
2023/08/02 06:49:03;;;;;;;1.27;0.90;;;;;;;;;;5112941;28;20051;-68
2023/08/02 06:51:30;;;;;;;2.10;0.90;;;;;;;;;;5112493;28;20048;-69
2023/08/02 06:53:57;;;;;;;1.85;1.10;;;;;;;;;;5112218;28;20039;-69
2023/08/02 06:56:24;;;;;;;2.13;1.13;;;;;;;;;;5112512;28;20100;-68
2023/08/02 06:58:51;;;;;;;2.28;0.90;;;;;;;;;;5112589;28;20084;-68
2023/08/02 07:01:20;;;;;;;1.88;0.80;;;;;;;;;;5112389;28;20048;-70
2023/08/02 07:03:47;;;;;;;1.70;1.00;;;;;;;;;;5112598;28;20054;-69
2023/08/02 07:06:19;;;;;;;1.45;0.95;;;;;;;;;;5112139;28;20062;-68
2023/08/02 07:08:47;;;;;;;1.88;1.10;;;;;;;;;;5112233;28;20040;-70
2023/08/02 07:11:13;;;;;;;4.07;1.20;;;;;;;;;;5112291;28;20097;-69
2023/08/02 07:13:51;;;;;;;2.58;1.25;;;;;;;;;;5111874;28;20050;-68
2023/08/02 07:16:18;;;;;;;2.72;0.95;;;;;;;;;;5112169;28;20051;-68
2023/08/02 07:18:45;;;;;;;3.22;1.02;;;;;;;;;;5112143;28;20441;-69
2023/08/02 07:21:11;;;;;;;2.78;1.05;;;;;;;;;;5111898;28;20420;-69
2023/08/02 07:23:38;;;;;;;2.83;1.30;;;;;;;;;;5111576;28;20044;-70
2023/08/02 07:26:05;;;;;;;2.83;1.02;;;;;;;;;;5111937;28;20120;-69
2023/08/02 07:28:32;;;;;;;3.38;1.25;;;;;;;;;;5112209;28;20043;-68
2023/08/02 07:31:09;;;;;;;3.42;1.20;;;;;;;;;;5110612;28;20055;-69
2023/08/02 07:33:36;;;;;;;3.00;1.00;;;;;;;;;;5111527;28;20047;-70
2023/08/02 07:36:04;;;;;;;2.58;1.00;;;;;;;;;;5111556;28;20060;-69
2023/08/02 07:38:31;;;;;;;5.25;1.20;;;;;;;;;;5111527;28;20097;-68
2023/08/02 07:41:02;;;;;;;2.33;1.20;;;;;;;;;;5111524;28;20039;-70
2023/08/02 07:43:29;;;;;;;3.35;1.20;;;;;;;;;;5111601;28;20047;-69
2023/08/02 07:45:56;;;;;;;1.55;0.90;;;;;;;;;;5111649;28;20043;-71
2023/08/02 07:48:22;;;;;;;2.70;1.20;;;;;;;;;;5111726;28;20043;-71
2023/08/02 07:50:49;;;;;;;3.25;1.02;;;;;;;;;;5111390;28;20047;-69
2023/08/02 07:53:16;;;;;;;2.80;1.10;;;;;;;;;;5111053;28;20054;-71
2023/08/02 07:55:42;;;;;;;3.22;1.20;;;;;;;;;;5111446;28;20048;-77
2023/08/02 07:58:09;;;;;;;2.25;1.10;;;;;;;;;;5111188;28;20044;-77
2023/08/02 08:00:36;;;;;;;1.60;1.00;;;;;;;;;;5111299;28;20047;-70
2023/08/02 08:03:05;;;;;;;3.17;0.93;;;;;;;;;;5111356;28;20046;-70
2023/08/02 08:05:32;;;;;;;2.38;0.95;;;;;;;;;;5111344;28;20093;-71
2023/08/02 08:07:59;;;;;;;3.50;1.10;;;;;;;;;;5110949;28;20377;-69
2023/08/02 08:10:25;;;;;;;2.72;1.17;;;;;;;;;;5111078;28;20059;-69
2023/08/02 08:12:52;;;;;;;2.50;1.00;;;;;;;;;;5110716;28;20058;-71
2023/08/02 08:15:19;;;;;;;3.20;1.10;;;;;;;;;;5111203;28;20070;-69
2023/08/02 08:17:45;;;;;;;2.58;1.20;;;;;;;;;;5111007;28;20055;-69
2023/08/02 08:20:12;;;;;;;1.33;0.90;;;;;;;;;;5111114;28;20483;-69
2023/08/02 08:22:39;;;;;;;3.17;0.90;;;;;;;;;;5110704;28;20057;-72
2023/08/02 08:25:06;;;;;;;4.53;1.00;;;;;;;;;;5110920;28;20392;-69
2023/08/02 08:27:35;;;;;;;2.75;1.15;;;;;;;;;;5110646;28;20407;-69
2023/08/02 08:30:03;;;;;;;2.47;1.23;;;;;;;;;;5110522;28;20415;-69
2023/08/02 08:32:30;;;;;;;3.03;1.17;;;;;;;;;;5110174;28;20400;-71
2023/08/02 08:34:57;;;;;;;2.00;1.05;;;;;;;;;;5110220;28;20139;-69
2023/08/02 08:37:25;;;;;;;1.02;0.88;;;;;;;;;;5110476;28;20050;-70
2023/08/02 08:39:51;;;;;;;1.77;1.02;;;;;;;;;;5092653;28;20534;-69
2023/08/02 08:42:47;;;;;;;1.27;1.05;;;;;;;;;;5109972;28;20050;-71
2023/08/02 08:45:17;;;;;;;1.70;1.10;;;;;;;;;;5109955;28;20044;-70
2023/08/02 08:47:44;;;;;;;3.17;1.10;;;;;;;;;;5110495;28;20055;-69
2023/08/02 08:50:11;;;;;;;1.70;1.00;;;;;;;;;;5110106;28;20083;-70
2023/08/02 08:52:40;;;;;;;2.78;1.08;;;;;;;;;;5109919;28;20047;-69
2023/08/02 08:55:08;;;;;;;3.05;1.00;;;;;;;;;;5110518;28;20048;-70
2023/08/02 08:57:35;;;;;;;2.83;1.27;;;;;;;;;;5110322;28;20044;-70
2023/08/02 09:00:08;;;;;;;3.67;1.20;;;;;;;;;;5110171;28;20381;-70
2023/08/02 09:02:37;;;;;;;3.92;1.20;;;;;;;;;;5110334;28;20051;-68
2023/08/02 09:05:04;;;;;;;2.92;1.10;;;;;;;;;;5110035;28;20419;-70
2023/08/02 09:07:31;;;;;;;2.35;1.10;;;;;;;;;;5109650;28;20515;-69
2023/08/02 09:09:58;;;;;;;2.17;1.20;;;;;;;;;;5109924;28;20078;-70
2023/08/02 09:12:28;;;;;;;2.33;1.25;;;;;;;;;;5110139;28;20199;-71
2023/08/02 09:15:04;;;;;;;2.33;1.30;;;;;;;;;;5109829;28;20044;-75
2023/08/02 09:17:49;;;;;;;2.15;1.10;;;;;;;;;;5109851;28;20059;-70
2023/08/02 09:20:24;;;;;;;1.63;1.05;;;;;;;;;;5110509;28;20124;-69
2023/08/02 09:22:51;;;;;;;2.78;1.30;;;;;;;;;;5110041;28;20047;-70
2023/08/02 09:25:25;;;;;;;2.08;1.15;;;;;;;;;;5110195;28;20067;-71
2023/08/02 09:27:53;;;;;;;5.30;1.48;;;;;;;;;;5109716;28;20062;-73
2023/08/02 09:30:27;;;;;;;3.30;1.40;;;;;;;;;;5109857;28;20058;-69
2023/08/02 09:33:05;;;;;;;2.83;1.42;;;;;;;;;;5110044;28;20101;-70
2023/08/02 09:35:58;;;;;;;2.50;1.38;;;;;;;;;;5109963;28;20052;-69
2023/08/02 09:38:24;;;;;;;2.97;1.42;;;;;;;;;;5106805;28;20051;-70
2023/08/02 09:40:51;;;;;;;2.88;1.60;;;;;;;;;;5109996;28;20040;-69
2023/08/02 09:43:43;;;;;;;3.97;1.70;;;;;;;;;;5109667;28;20036;-69
2023/08/02 09:46:31;;;;;;;3.13;1.40;;;;;;;;;;5109930;28;20460;-70
2023/08/02 09:48:58;;;;;;;3.13;1.77;;;;;;;;;;5109545;28;20054;-69
2023/08/02 09:51:41;;;;;;;2.92;1.70;;;;;;;;;;5109934;28;20411;-69
2023/08/02 09:54:10;;;;;;;2.45;1.40;;;;;;;;;;5093977;28;20059;-69
2023/08/02 09:56:38;;;;;;;2.67;1.40;;;;;;;;;;5113921;28;20051;-68
2023/08/02 09:59:07;;;;;;;2.67;1.63;;;;;;;;;;5113704;28;20051;-69
2023/08/02 10:01:35;;;;;;;2.55;1.40;;;;;;;;;;5114058;28;20051;-68
2023/08/02 10:04:05;;;;;;;3.30;1.92;;;;;;;;;;5113441;28;20052;-68
2023/08/02 10:06:37;;;;;;;2.63;1.45;;;;;;;;;;5113924;28;20137;-68
2023/08/02 10:09:07;;;;;;;2.92;1.50;;;;;;;;;;5113240;28;20055;-68
2023/08/02 10:11:42;;;;;;;2.63;1.48;;;;;;;;;;5113397;28;20095;-68
2023/08/02 10:14:10;;;;;;;3.13;1.63;;;;;;;;;;5113089;28;20047;-69
2023/08/02 10:16:39;;;;;;;2.15;1.50;;;;;;;;;;5113827;28;20040;-69
2023/08/02 10:19:06;;;;;;;3.10;1.38;;;;;;;;;;5113146;28;20497;-69
2023/08/02 10:21:34;;;;;;;3.95;1.52;;;;;;;;;;5113447;28;20043;-71
2023/08/02 10:24:01;;;;;;;2.45;1.33;;;;;;;;;;5112764;28;20548;-69
2023/08/02 10:26:29;;;;;;;3.40;1.50;;;;;;;;;;5112970;28;20525;-68
2023/08/02 10:28:58;;;;;;;3.00;1.42;;;;;;;;;;5112860;28;20559;-69
2023/08/02 10:31:25;;;;;;;2.78;1.55;;;;;;;;;;5112905;28;20055;-69
2023/08/02 10:33:52;;;;;;;3.28;1.50;;;;;;;;;;5113072;28;20040;-68
2023/08/02 10:36:19;;;;;;;4.60;1.60;;;;;;;;;;5113294;28;20050;-68
2023/08/02 10:38:53;;;;;;;3.67;1.52;;;;;;;;;;5112622;28;20040;-69
2023/08/02 10:41:28;;;;;;;3.10;1.67;;;;;;;;;;5112921;28;20067;-68
2023/08/02 10:43:55;;;;;;;5.95;1.55;;;;;;;;;;5112514;28;20047;-68
2023/08/02 10:46:27;;;;;;;3.42;1.60;;;;;;;;;;5113007;28;20044;-69
2023/08/02 10:49:15;;;;;;;2.85;1.50;;;;;;;;;;5112579;28;20142;-69
2023/08/02 10:51:43;;;;;;;3.85;1.30;;;;;;;;;;5112496;28;20052;-69
2023/08/02 10:54:21;;;;;;;2.90;1.40;;;;;;;;;;5112297;28;20043;-70
2023/08/02 10:56:51;;;;;;;2.85;1.30;;;;;;;;;;5113048;28;20036;-69
2023/08/02 10:59:36;;;;;;;4.20;1.50;;;;;;;;;;5111525;28;20043;-69
2023/08/02 11:02:07;;;;;;;2.75;1.70;;;;;;;;;;5112787;28;20071;-69
2023/08/02 11:04:35;;;;;;;2.38;1.27;;;;;;;;;;5112214;28;20039;-70
2023/08/02 11:07:13;;;;;;;2.90;1.55;;;;;;;;;;5112471;28;20491;-70
2023/08/02 11:09:41;;;;;;;3.90;1.60;;;;;;;;;;5112297;28;20044;-69
2023/08/02 11:12:14;;;;;;;2.28;1.27;;;;;;;;;;5112338;28;20047;-69
2023/08/02 11:14:51;;;;;;;3.47;1.30;;;;;;;;;;5112432;28;20062;-69
2023/08/02 11:17:22;;;;;;;3.47;1.55;;;;;;;;;;5112291;28;20044;-70
2023/08/02 11:19:53;;;;;;;3.05;1.50;;;;;;;;;;5112128;28;20051;-70
2023/08/02 11:22:23;;;;;;;3.58;1.33;;;;;;;;;;5112420;28;20564;-69
2023/08/02 11:24:52;;;;;;;3.83;1.65;;;;;;;;;;5111540;28;20047;-69
2023/08/02 11:27:22;;;;;;;2.07;1.17;;;;;;;;;;5112210;28;20047;-68
2023/08/02 11:30:03;;;;;;;4.43;1.40;;;;;;;;;;5112148;28;20044;-69
2023/08/02 11:32:32;;;;;;;2.72;1.15;;;;;;;;;;5112020;28;20062;-68
2023/08/02 11:34:59;;;;;;;2.97;1.25;;;;;;;;;;5111560;28;20047;-69
2023/08/02 11:37:27;;;;;;;2.42;1.20;;;;;;;;;;5112101;28;20044;-68
2023/08/02 11:39:56;;;;;;;2.95;1.33;;;;;;;;;;5111554;28;20051;-69
2023/08/02 11:42:26;;;;;;;3.67;1.38;;;;;;;;;;5111746;28;20048;-68
2023/08/02 11:44:53;;;;;;;4.15;1.67;;;;;;;;;;5111049;28;20040;-69
2023/08/02 11:47:39;;;;;;;4.15;1.38;;;;;;;;;;5111709;28;20564;-69
2023/08/02 11:50:06;;;;;;;3.35;1.58;;;;;;;;;;5111781;28;20040;-69
2023/08/02 11:52:33;;;;;;;2.67;1.23;;;;;;;;;;5111732;28;20142;-69
2023/08/02 11:55:01;;;;;;;2.67;1.30;;;;;;;;;;5110982;28;20392;-69
2023/08/02 11:57:28;;;;;;;2.20;1.15;;;;;;;;;;5111665;28;20058;-69
2023/08/02 11:59:56;;;;;;;3.75;1.40;;;;;;;;;;5111042;28;20048;-69
2023/08/02 12:02:34;;;;;;;2.38;1.27;;;;;;;;;;5111450;28;20684;-69
2023/08/02 12:05:08;;;;;;;2.25;1.23;;;;;;;;;;5111149;28;20122;-69
2023/08/02 12:07:36;;;;;;;1.90;1.20;;;;;;;;;;5111286;28;20040;-69
2023/08/02 12:10:06;;;;;;;3.08;1.42;;;;;;;;;;5111174;28;20547;-69
2023/08/02 12:12:35;;;;;;;2.28;1.25;;;;;;;;;;5111403;28;20051;-69
2023/08/02 12:15:12;;;;;;;3.20;1.38;;;;;;;;;;5111025;28;20047;-69
2023/08/02 12:17:39;;;;;;;5.95;1.38;;;;;;;;;;5110807;28;20043;-68
2023/08/02 12:20:06;;;;;;;2.80;1.35;;;;;;;;;;5110931;28;20499;-69
2023/08/02 12:22:49;;;;;;;2.45;1.20;;;;;;;;;;5111043;28;20083;-69
2023/08/02 12:25:15;;;;;;;2.90;1.50;;;;;;;;;;5110584;28;20048;-69
2023/08/02 12:27:42;;;;;;;3.28;1.30;;;;;;;;;;5110990;28;20472;-69
2023/08/02 12:30:11;;;;;;;2.58;1.40;;;;;;;;;;5110923;28;20062;-69
2023/08/02 12:32:38;;;;;;;3.40;1.45;;;;;;;;;;5111099;28;20090;-69
2023/08/02 12:35:06;;;;;;;2.75;1.30;;;;;;;;;;5110298;28;20058;-68
2023/08/02 12:37:38;;;;;;;2.67;1.40;;;;;;;;;;5110382;28;20104;-69
2023/08/02 12:40:05;;;;;;;2.88;1.60;;;;;;;;;;5110541;28;20052;-69
2023/08/02 12:42:32;;;;;;;2.90;1.20;;;;;;;;;;5110981;28;20092;-69
2023/08/02 12:45:03;;;;;;;3.67;1.30;;;;;;;;;;5110141;28;20044;-70
2023/08/02 12:47:42;;;;;;;2.42;1.50;;;;;;;;;;5110763;28;20047;-69
2023/08/02 12:50:09;;;;;;;4.75;1.60;;;;;;;;;;5110135;28;20089;-69
2023/08/02 12:52:36;;;;;;;2.65;1.38;;;;;;;;;;5110519;28;20048;-70
2023/08/02 12:55:06;;;;;;;2.08;1.35;;;;;;;;;;5109910;28;20043;-69
2023/08/02 12:57:32;;;;;;;2.95;1.33;;;;;;;;;;5110338;28;20044;-70
2023/08/02 12:59:59;;;;;;;2.63;1.40;;;;;;;;;;5110447;28;20131;-72
2023/08/02 13:02:26;;;;;;;3.70;1.38;;;;;;;;;;5110897;28;20130;-70
2023/08/02 13:04:53;;;;;;;4.55;1.50;;;;;;;;;;5110052;28;20051;-70
2023/08/02 13:07:19;;;;;;;3.03;1.48;;;;;;;;;;5110226;28;20130;-69
2023/08/02 13:09:50;;;;;;;2.58;1.52;;;;;;;;;;5110043;28;20075;-75
2023/08/02 13:12:16;;;;;;;2.78;1.40;;;;;;;;;;5110049;28;20648;-69
2023/08/02 13:14:57;;;;;;;2.40;1.40;;;;;;;;;;5109959;28;20048;-75
2023/08/02 13:17:24;;;;;;;4.13;1.50;;;;;;;;;;5110167;28;20044;-70
2023/08/02 13:19:51;;;;;;;3.47;1.70;;;;;;;;;;5109924;28;20508;-76
2023/08/02 13:22:18;;;;;;;2.70;1.50;;;;;;;;;;5110511;28;20169;-78
2023/08/02 13:24:44;;;;;;;2.92;1.38;;;;;;;;;;5110312;28;20054;-69
2023/08/02 13:27:11;;;;;;;1.95;1.38;;;;;;;;;;5110191;28;20051;-69
2023/08/02 13:29:38;;;;;;;2.88;1.38;;;;;;;;;;5113331;28;20089;-69
2023/08/02 13:32:04;;;;;;;2.63;1.33;;;;;;;;;;5113744;28;20067;-70
2023/08/02 13:34:31;;;;;;;2.30;1.27;;;;;;;;;;5114478;28;20071;-69
2023/08/02 13:36:57;;;;;;;3.95;1.55;;;;;;;;;;5113739;28;20105;-70
2023/08/02 13:39:25;;;;;;;2.33;1.38;;;;;;;;;;5114084;28;20051;-69
2023/08/02 13:41:52;;;;;;;3.75;1.58;;;;;;;;;;5113150;28;20043;-69
2023/08/02 13:44:19;;;;;;;2.03;1.23;;;;;;;;;;5114496;28;20112;-73
2023/08/02 13:46:45;;;;;;;2.47;1.30;;;;;;;;;;5113647;28;20096;-72
2023/08/02 13:49:12;;;;;;;2.70;1.42;;;;;;;;;;5113834;28;20598;-70
2023/08/02 13:51:39;;;;;;;2.42;1.40;;;;;;;;;;5095443;28;20050;-69
2023/08/02 13:54:05;;;;;;;2.55;1.40;;;;;;;;;;5113924;28;20047;-69
2023/08/02 13:56:32;;;;;;;4.63;1.48;;;;;;;;;;5113760;28;20052;-70
2023/08/02 13:58:59;;;;;;;2.80;1.30;;;;;;;;;;5114103;28;20047;-72
2023/08/02 14:01:25;;;;;;;2.10;1.40;;;;;;;;;;5113728;28;20560;-70
2023/08/02 14:03:52;;;;;;;2.35;1.17;;;;;;;;;;5112910;28;20059;-69
2023/08/02 14:06:19;;;;;;;3.08;1.58;;;;;;;;;;5113488;28;20046;-70
2023/08/02 14:08:46;;;;;;;2.83;1.33;;;;;;;;;;5113349;28;20498;-70
2023/08/02 14:11:12;;;;;;;3.03;1.40;;;;;;;;;;5113560;28;20127;-70
2023/08/02 14:13:39;;;;;;;2.25;1.25;;;;;;;;;;5113448;28;20052;-69
2023/08/02 14:16:06;;;;;;;2.08;1.30;;;;;;;;;;5113335;28;20043;-71
2023/08/02 14:18:32;;;;;;;3.67;1.45;;;;;;;;;;5113448;28;20089;-69
2023/08/02 14:20:59;;;;;;;2.95;1.35;;;;;;;;;;5113264;28;20048;-72
2023/08/02 14:23:26;;;;;;;2.83;1.50;;;;;;;;;;5113617;28;20046;-69
2023/08/02 14:25:52;;;;;;;3.35;1.38;;;;;;;;;;5112825;28;20061;-67
2023/08/02 14:28:19;;;;;;;2.15;1.20;;;;;;;;;;5113061;28;20507;-70
2023/08/02 14:30:46;;;;;;;2.10;1.40;;;;;;;;;;5112781;28;20514;-72
2023/08/02 14:33:12;;;;;;;3.35;1.63;;;;;;;;;;5113078;28;20051;-71
2023/08/02 14:35:39;;;;;;;2.85;1.40;;;;;;;;;;5112829;28;20043;-72
2023/08/02 14:38:06;;;;;;;2.83;1.40;;;;;;;;;;5112885;28;20048;-70
2023/08/02 14:40:34;;;;;;;3.38;1.23;;;;;;;;;;5112374;28;20040;-70
2023/08/02 14:43:01;;;;;;;3.63;1.52;;;;;;;;;;5113138;28;20044;-75
2023/08/02 14:45:27;;;;;;;6.40;1.50;;;;;;;;;;5112897;28;20067;-70
2023/08/02 14:47:54;;;;;;;2.08;1.35;;;;;;;;;;5112451;28;20507;-70
2023/08/02 14:50:21;;;;;;;2.20;1.40;;;;;;;;;;5112683;28;20488;-72